Time;durP1;ratioP1;P1;durP2;ratioP2;P2;SDS_P1;SDS_P2;PMS_P1;PMS_P2;Temp;Humidity;BMP_temperature;BMP_pressure;BME280_temperature;BME280_humidity;BME280_pressure;Samples;Min_cycle;Max_cycle;Signal;HPM_P1;HPM_P2
2022/11/06 00:00:25;;;;;;;;;;;;;;;16.74;59.16;100771.03;5039666;28;1149;-55
2022/11/06 00:02:50;;;;;;;;;;;;;;;16.33;58.80;100771.00;5056981;28;1218;-56
2022/11/06 00:08:00;;;;;;;;;;;;;;;15.95;57.90;100759.38;5056715;28;2397;-55
2022/11/06 00:10:25;;;;;;;;;;;;;;;16.02;58.40;100766.28;5056960;28;1258;-55
2022/11/06 00:12:51;;;;;;;;;;;;;;;17.35;58.31;100761.91;5057170;28;1112;-55
2022/11/06 00:15:16;;;;;;;;;;;;;;;16.81;58.58;100766.09;5057368;28;1124;-55
2022/11/06 00:17:42;;;;;;;;;;;;;;;16.38;58.64;100766.34;5057058;28;1095;-57
2022/11/06 00:20:08;;;;;;;;;;;;;;;16.18;58.55;100763.56;5056482;28;1152;-57
2022/11/06 00:22:34;;;;;;;;;;;;;;;16.02;58.11;100752.56;5056768;28;1127;-57
2022/11/06 00:25:00;;;;;;;;;;;;;;;15.97;57.67;100746.25;5056816;28;1967;-55
2022/11/06 00:27:25;;;;;;;;;;;;;;;15.85;57.31;100751.94;5056199;28;1199;-56
2022/11/06 00:29:51;;;;;;;;;;;;;;;15.79;57.37;100751.09;5037561;28;1481;-56
2022/11/06 00:32:16;;;;;;;;;;;;;;;15.68;57.32;100757.59;5056041;28;1227;-56
2022/11/06 00:34:42;;;;;;;;;;;;;;;16.85;58.76;100760.88;5056620;28;1109;-56
2022/11/06 00:37:07;;;;;;;;;;;;;;;16.89;58.77;100775.75;5058685;28;1876;-57
2022/11/06 00:39:32;;;;;;;;;;;;;;;16.30;59.16;100764.16;5057089;28;1155;-57
2022/11/06 00:41:58;;;;;;;;;;;;;;;16.13;58.54;100771.78;5056727;28;1151;-56
2022/11/06 00:44:23;;;;;;;;;;;;;;;15.96;58.10;100767.34;5055778;28;1969;-56
2022/11/06 00:46:49;;;;;;;;;;;;;;;15.85;57.69;100765.66;5056599;28;1175;-56
2022/11/06 00:49:14;;;;;;;;;;;;;;;15.77;57.56;100764.25;5056441;28;1239;-57
2022/11/06 00:51:40;;;;;;;;;;;;;;;15.74;57.14;100765.59;5056189;28;1100;-56
2022/11/06 00:54:06;;;;;;;;;;;;;;;16.99;58.37;100769.41;5056418;28;978;-56
2022/11/06 00:56:31;;;;;;;;;;;;;;;17.06;58.13;100765.25;5055943;28;1112;-57
2022/11/06 00:59:00;;;;;;;;;;;;;;;16.43;58.64;100769.09;5055899;28;1175;-56
2022/11/06 01:01:27;;;;;;;;;;;;;;;16.20;58.53;100769.59;5056075;28;1203;-56
2022/11/06 01:03:53;;;;;;;;;;;;;;;16.05;57.82;100759.44;5038164;28;2013;-56
2022/11/06 01:06:20;;;;;;;;;;;;;;;15.90;57.50;100761.00;5056068;28;1432;-54
2022/11/06 01:08:45;;;;;;;;;;;;;;;15.79;57.33;100762.06;5060537;28;2353;-55
2022/11/06 01:11:12;;;;;;;;;;;;;;;15.71;57.95;100757.91;5055971;28;1104;-56
2022/11/06 01:13:37;;;;;;;;;;;;;;;17.08;58.47;100754.84;5055297;28;1080;-56
2022/11/06 01:16:06;;;;;;;;;;;;;;;16.79;58.65;100745.47;5055486;28;1278;-56
2022/11/06 01:18:32;;;;;;;;;;;;;;;16.28;58.90;100754.53;5055751;28;1183;-57
2022/11/06 01:20:57;;;;;;;;;;;;;;;16.12;58.17;100753.66;5055465;28;1147;-56
2022/11/06 01:23:23;;;;;;;;;;;;;;;15.94;57.90;100744.84;5055494;28;1973;-55
2022/11/06 01:25:58;;;;;;;;;;;;;;;15.84;57.39;100748.38;5055741;28;1203;-55
2022/11/06 01:28:24;;;;;;;;;;;;;;;15.74;57.33;100751.88;5055873;28;1147;-56
2022/11/06 01:30:49;;;;;;;;;;;;;;;16.08;58.66;100742.44;5055708;28;1140;-56
2022/11/06 01:33:15;;;;;;;;;;;;;;;17.38;58.10;100741.31;5055351;28;886;-55
2022/11/06 01:35:46;;;;;;;;;;;;;;;16.71;58.71;100744.94;5055794;28;1211;-56
2022/11/06 01:38:12;;;;;;;;;;;;;;;16.28;58.63;100741.63;5046395;28;2662;-56
2022/11/06 01:40:41;;;;;;;;;;;;;;;16.12;58.17;100739.94;5055566;28;1430;-56
2022/11/06 01:43:20;;;;;;;;;;;;;;;15.98;57.59;100748.72;5055289;28;1902;-56
2022/11/06 01:45:50;;;;;;;;;;;;;;;15.84;57.58;100747.56;5055291;28;937;-55
2022/11/06 01:48:15;;;;;;;;;;;;;;;15.76;57.47;100740.66;5055498;28;1175;-54
2022/11/06 01:50:41;;;;;;;;;;;;;;;15.72;57.70;100740.38;5037485;28;1140;-56
2022/11/06 01:53:07;;;;;;;;;;;;;;;17.09;58.31;100745.47;5055155;28;1210;-53
2022/11/06 01:55:37;;;;;;;;;;;;;;;16.80;58.52;100730.66;5055950;28;1144;-55
2022/11/06 01:58:02;;;;;;;;;;;;;;;16.35;58.74;100746.84;5055259;28;930;-56
2022/11/06 02:00:29;;;;;;;;;;;;;;;16.15;58.33;100736.69;5037346;28;1135;-55
2022/11/06 02:02:55;;;;;;;;;;;;;;;15.97;58.02;100736.09;5055602;28;1120;-55
2022/11/06 02:05:20;;;;;;;;;;;;;;;16.96;58.87;100735.06;5058825;28;1918;-56
2022/11/06 02:07:46;;;;;;;;;;;;;;;17.18;58.32;100722.94;5059587;28;2246;-56
2022/11/06 02:10:11;;;;;;;;;;;;;;;16.51;58.87;100725.72;5041331;28;1061;-55
2022/11/06 02:13:03;;;;;;;;;;;;;;;16.29;58.28;100720.50;5058784;28;1147;-56
2022/11/06 02:15:38;;;;;;;;;;;;;;;16.05;58.04;100727.31;5055985;28;1333;-55
2022/11/06 02:18:09;;;;;;;;;;;;;;;15.90;57.86;100728.09;5059565;28;1183;-56
2022/11/06 02:20:36;;;;;;;;;;;;;;;17.23;58.44;100722.91;5041096;28;1165;-57
2022/11/06 02:23:20;;;;;;;;;;;;;;;16.87;58.65;100726.53;5041507;28;1955;-56
2022/11/06 02:25:51;;;;;;;;;;;;;;;16.38;58.70;100722.44;5058906;28;1218;-55
2022/11/06 02:28:20;;;;;;;;;;;;;;;16.17;58.43;100735.31;5059012;28;1199;-56
2022/11/06 02:30:46;;;;;;;;;;;;;;;16.10;58.19;100733.91;5058890;28;1096;-55
2022/11/06 02:33:12;;;;;;;;;;;;;;;17.44;58.04;100732.72;5040700;28;951;-56
2022/11/06 02:35:40;;;;;;;;;;;;;;;16.84;58.76;100737.25;5058698;28;1225;-56
2022/11/06 02:38:13;;;;;;;;;;;;;;;16.43;58.41;100732.59;5058105;28;1952;-56
2022/11/06 02:40:39;;;;;;;;;;;;;;;16.25;58.01;100743.00;5058972;28;1132;-55
2022/11/06 02:43:06;;;;;;;;;;;;;;;16.03;57.63;100748.72;5041028;28;1897;-56
2022/11/06 02:45:33;;;;;;;;;;;;;;;15.90;57.69;100736.31;5058594;28;897;-56
2022/11/06 02:47:58;;;;;;;;;;;;;;;16.79;58.89;100743.59;5041275;28;1129;-55
2022/11/06 02:50:29;;;;;;;;;;;;;;;17.42;57.72;100743.19;5040853;28;1203;-55
2022/11/06 02:52:56;;;;;;;;;;;;;;;16.62;58.69;100745.75;5040579;28;1136;-55
2022/11/06 02:55:27;;;;;;;;;;;;;;;16.31;58.31;100757.53;5058715;28;1103;-55
2022/11/06 02:57:53;;;;;;;;;;;;;;;16.12;58.16;100760.00;5040374;28;1179;-53
2022/11/06 03:00:19;;;;;;;;;;;;;;;16.01;57.75;100753.66;5040322;28;1143;-53
2022/11/06 03:02:46;;;;;;;;;;;;;;;15.90;57.62;100757.44;5058636;28;1017;-52
2022/11/06 03:05:13;;;;;;;;;;;;;;;16.48;58.67;100750.97;5057902;28;1913;-54
2022/11/06 03:07:57;;;;;;;;;;;;;;;17.60;57.52;100749.19;5039258;28;1758;-55
2022/11/06 03:10:23;;;;;;;;;;;;;;;16.65;58.74;100748.81;5040275;28;966;-54
2022/11/06 03:12:50;;;;;;;;;;;;;;;16.36;58.64;100754.81;5029153;28;1379;-53
2022/11/06 03:15:34;;;;;;;;;;;;;;;16.19;58.12;100754.25;5057075;28;1162;-56
2022/11/06 03:18:08;;;;;;;;;;;;;;;16.02;57.82;100758.03;5040433;28;1164;-55
2022/11/06 03:20:35;;;;;;;;;;;;;;;15.92;57.33;100760.75;5057674;28;1123;-55
2022/11/06 03:23:09;;;;;;;;;;;;;;;15.82;57.45;100763.47;5040371;28;1097;-55
2022/11/06 03:25:39;;;;;;;;;;;;;;;17.09;58.41;100764.69;5058002;28;1144;-55
2022/11/06 03:28:05;;;;;;;;;;;;;;;17.15;58.20;100764.72;5039891;28;1187;-54
2022/11/06 03:30:35;;;;;;;;;;;;;;;16.50;58.94;100754.28;5057837;28;1084;-55
2022/11/06 03:33:12;;;;;;;;;;;;;;;16.29;58.45;100762.50;5039919;28;1168;-55
2022/11/06 03:35:37;;;;;;;;;;;;;;;16.07;58.13;100763.56;5040240;28;1144;-55
2022/11/06 03:38:21;;;;;;;;;;;;;;;15.94;57.87;100761.31;5057915;28;2390;-56
2022/11/06 03:40:48;;;;;;;;;;;;;;;15.80;57.70;100773.88;5057815;28;1179;-55
2022/11/06 03:43:15;;;;;;;;;;;;;;;16.57;58.88;100760.31;5039761;28;1973;-55
2022/11/06 03:45:40;;;;;;;;;;;;;;;17.43;57.87;100761.34;5056842;28;1459;-55
2022/11/06 03:48:08;;;;;;;;;;;;;;;16.57;58.89;100766.63;5042282;28;1104;-56
2022/11/06 03:50:37;;;;;;;;;;;;;;;16.28;58.48;100769.06;5056224;28;1144;-55
2022/11/06 03:53:03;;;;;;;;;;;;;;;16.12;58.05;100770.97;5029038;28;1092;-55
2022/11/06 03:55:33;;;;;;;;;;;;;;;15.98;58.01;100776.13;5056119;28;1180;-55
2022/11/06 03:58:09;;;;;;;;;;;;;;;15.86;57.48;100779.09;5039586;28;1159;-55
2022/11/06 04:00:35;;;;;;;;;;;;;;;15.98;58.31;100770.66;5039482;28;1108;-55
2022/11/06 04:03:04;;;;;;;;;;;;;;;17.34;57.98;100774.00;5039858;28;1171;-56
2022/11/06 04:05:31;;;;;;;;;;;;;;;16.73;58.75;100763.88;5057379;28;1080;-55
2022/11/06 04:16:09;;;;;;;;;;;;;;;15.85;57.63;100771.13;5044102;28;1109;-53
2022/11/06 04:18:35;;;;;;;;;;;;;;;16.64;59.13;100771.84;5038960;28;1132;-54
2022/11/06 04:21:22;;;;;;;;;;;;;;;17.51;57.62;100768.19;5056158;28;1188;-55
2022/11/06 04:26:34;;;;;;;;;;;;;;;16.55;58.67;100766.09;5056324;28;1914;-56
2022/11/06 04:26:35;;;;;;;;;;;;;;;16.22;58.44;100773.72;5044008;28;1065;-55
2022/11/06 04:29:01;;;;;;;;;;;;;;;16.08;57.91;100767.91;5039384;28;1152;-53
2022/11/06 04:31:29;;;;;;;;;;;;;;;15.93;57.89;100764.31;5056656;28;979;-54
2022/11/06 04:33:57;;;;;;;;;;;;;;;16.05;58.32;100770.41;5056759;28;1329;-54
2022/11/06 04:36:22;;;;;;;;;;;;;;;17.44;58.07;100771.22;5038583;28;1246;-49
2022/11/06 04:39:03;;;;;;;;;;;;;;;16.99;58.45;100772.97;5061689;28;2531;-54
2022/11/06 04:41:35;;;;;;;;;;;;;;;16.41;58.73;100785.00;5022409;28;1204;-54
2022/11/06 04:44:02;;;;;;;;;;;;;;;16.21;58.05;100784.97;5056547;28;1975;-53
2022/11/06 04:46:29;;;;;;;;;;;;;;;16.11;57.69;100787.69;5055833;28;1180;-57
2022/11/06 04:48:54;;;;;;;;;;;;;;;15.93;57.72;100783.53;5056818;28;1155;-53
2022/11/06 04:51:21;;;;;;;;;;;;;;;16.36;58.30;100782.25;5038214;28;1100;-56
2022/11/06 04:53:46;;;;;;;;;;;;;;;17.56;57.87;100781.09;5056809;28;1139;-51
2022/11/06 04:56:12;;;;;;;;;;;;;;;16.64;58.90;100787.50;5038200;28;1159;-54
2022/11/06 04:58:37;;;;;;;;;;;;;;;16.37;58.62;100785.84;5055155;28;908;-53
2022/11/06 05:01:03;;;;;;;;;;;;;;;16.25;58.33;100786.06;5055759;28;1156;-52
2022/11/06 05:03:28;;;;;;;;;;;;;;;16.92;59.33;100783.41;5055951;28;1973;-53
2022/11/06 05:05:55;;;;;;;;;;;;;;;17.13;58.56;100788.91;5056830;28;1422;-57
2022/11/06 05:08:20;;;;;;;;;;;;;;;16.59;58.88;100791.06;5055711;28;2153;-53
2022/11/06 05:10:46;;;;;;;;;;;;;;;16.33;58.35;100791.03;5055661;28;1156;-56
2022/11/06 05:13:11;;;;;;;;;;;;;;;16.19;58.07;100792.66;5056525;28;1081;-59
2022/11/06 05:15:37;;;;;;;;;;;;;;;16.11;57.77;100798.66;5056695;28;1112;-59
2022/11/06 05:18:02;;;;;;;;;;;;;;;15.99;57.52;100807.97;5056530;28;1132;-60
2022/11/06 05:20:28;;;;;;;;;;;;;;;16.10;58.35;100800.56;5056393;28;1211;-59
2022/11/06 05:22:59;;;;;;;;;;;;;;;17.45;57.90;100805.06;5055975;28;1136;-59
2022/11/06 05:25:29;;;;;;;;;;;;;;;16.74;58.86;100820.47;5056174;28;1973;-59
2022/11/06 05:27:54;;;;;;;;;;;;;;;16.37;58.65;100814.09;5056399;28;1049;-60
2022/11/06 05:30:20;;;;;;;;;;;;;;;16.20;58.41;100816.22;5056185;28;1163;-60
2022/11/06 05:32:45;;;;;;;;;;;;;;;16.12;57.63;100824.97;5055891;28;1195;-60
2022/11/06 05:35:11;;;;;;;;;;;;;;;15.97;57.71;100818.34;5055849;28;1187;-59
2022/11/06 05:37:36;;;;;;;;;;;;;;;15.86;57.51;100824.91;5055596;28;1976;-58
2022/11/06 05:40:02;;;;;;;;;;;;;;;16.76;58.48;100832.81;5054903;28;1069;-57
2022/11/06 05:42:27;;;;;;;;;;;;;;;16.90;58.76;100821.31;5055977;28;1127;-60
2022/11/06 05:44:53;;;;;;;;;;;;;;;16.41;58.64;100828.94;5056143;28;1905;-60
2022/11/06 05:47:18;;;;;;;;;;;;;;;16.16;58.57;100826.94;5055050;28;946;-60
2022/11/06 05:49:43;;;;;;;;;;;;;;;16.06;58.25;100827.72;5056053;28;1215;-60
2022/11/06 05:52:09;;;;;;;;;;;;;;;15.96;57.68;100833.16;5055765;28;1108;-61
2022/11/06 05:54:34;;;;;;;;;;;;;;;16.21;59.03;100829.69;5055239;28;1135;-58
2022/11/06 05:57:00;;;;;;;;;;;;;;;17.53;57.35;100831.97;5055789;28;1160;-57
2022/11/06 05:59:25;;;;;;;;;;;;;;;16.71;58.65;100835.56;5054976;28;894;-58
2022/11/06 06:01:50;;;;;;;;;;;;;;;16.38;58.48;100834.97;5055314;28;1242;-59
2022/11/06 06:04:16;;;;;;;;;;;;;;;16.19;58.38;100847.53;5055511;28;1975;-59
2022/11/06 06:06:41;;;;;;;;;;;;;;;16.07;58.09;100847.75;5055629;28;1112;-58
2022/11/06 06:09:07;;;;;;;;;;;;;;;16.00;58.05;100845.25;5037640;28;1876;-57
2022/11/06 06:11:32;;;;;;;;;;;;;;;15.91;57.86;100850.41;5055489;28;855;-58
2022/11/06 06:13:58;;;;;;;;;;;;;;;15.94;58.12;100846.31;5055454;28;1156;-57
2022/11/06 06:16:24;;;;;;;;;;;;;;;17.32;57.79;100853.19;5055806;28;1155;-55
2022/11/06 06:18:52;;;;;;;;;;;;;;;16.81;58.62;100853.16;5055824;28;1218;-56
2022/11/06 06:21:17;;;;;;;;;;;;;;;16.41;58.87;100869.25;5055622;28;1117;-56
2022/11/06 06:23:43;;;;;;;;;;;;;;;16.23;58.44;100865.09;5055217;28;1898;-56
2022/11/06 06:26:08;;;;;;;;;;;;;;;16.11;58.07;100862.56;5055466;28;1139;-56
2022/11/06 06:28:34;;;;;;;;;;;;;;;15.99;58.02;100860.06;5055633;28;1224;-57
2022/11/06 06:31:02;;;;;;;;;;;;;;;16.53;58.86;100858.84;5055410;28;1136;-57
2022/11/06 06:33:28;;;;;;;;;;;;;;;17.29;57.86;100856.47;5055047;28;1272;-58
2022/11/06 06:35:53;;;;;;;;;;;;;;;17.40;60.52;100849.88;5055661;28;918;-57
2022/11/06 06:38:18;;;;;;;;;;;;;;;17.16;58.14;100859.78;5054319;28;1825;-55
2022/11/06 06:40:44;;;;;;;;;;;;;;;16.85;55.49;100865.25;5055765;28;1104;-57
2022/11/06 06:43:09;;;;;;;;;;;;;;;16.75;54.46;100864.13;5055609;28;1088;-56
2022/11/06 06:45:35;;;;;;;;;;;;;;;17.10;56.28;100868.00;5038201;28;1165;-55
2022/11/06 06:48:01;;;;;;;;;;;;;;;16.81;54.03;100864.94;5055503;28;973;-55
2022/11/06 06:50:26;;;;;;;;;;;;;;;17.04;54.23;100866.38;5056698;28;1135;-56
2022/11/06 06:52:56;;;;;;;;;;;;;;;17.26;55.08;100876.25;5058822;28;1132;-56
2022/11/06 06:55:21;;;;;;;;;;;;;;;16.96;53.25;100868.81;5058809;28;1128;-57
2022/11/06 06:57:47;;;;;;;;;;;;;;;16.73;51.69;100862.72;5058989;28;1124;-56
2022/11/06 07:00:12;;;;;;;;;;;;;;;16.60;50.66;100864.91;5058052;28;1141;-56
2022/11/06 07:02:38;;;;;;;;;;;;;;;17.48;53.40;100877.91;5059250;28;1108;-57
2022/11/06 07:05:03;;;;;;;;;;;;;;;16.98;52.98;100881.19;5058611;28;1913;-57
2022/11/06 07:07:28;;;;;;;;;;;;;;;17.85;54.30;100884.94;5058554;28;1777;-57
2022/11/06 07:09:54;;;;;;;;;;;;;;;18.03;55.41;100886.31;5058561;28;1218;-56
2022/11/06 07:12:19;;;;;;;;;;;;;;;17.37;53.83;100877.06;5058432;28;1161;-57
2022/11/06 07:14:45;;;;;;;;;;;;;;;17.06;52.27;100882.59;5058677;28;1254;-56
2022/11/06 07:17:10;;;;;;;;;;;;;;;17.02;50.67;100890.53;5058337;28;1081;-56
2022/11/06 07:19:36;;;;;;;;;;;;;;;16.85;49.60;100885.28;5058553;28;1183;-58
2022/11/06 07:22:01;;;;;;;;;;;;;;;17.07;50.15;100893.28;5058011;28;1109;-57
2022/11/06 07:24:27;;;;;;;;;;;;;;;17.33;51.88;100889.72;5058407;28;1982;-57
2022/11/06 07:26:52;;;;;;;;;;;;;;;17.07;50.59;100896.03;5058294;28;1084;-58
2022/11/06 07:29:17;;;;;;;;;;;;;;;17.70;52.61;100896.84;5058332;28;1144;-58
2022/11/06 07:31:43;;;;;;;;;;;;;;;17.21;51.97;100898.25;5058398;28;1163;-59
2022/11/06 07:34:08;;;;;;;;;;;;;;;17.40;51.80;100899.34;5058601;28;1136;-57
2022/11/06 07:36:34;;;;;;;;;;;;;;;17.89;53.04;100897.06;5057598;28;1417;-56
2022/11/06 07:38:59;;;;;;;;;;;;;;;17.31;52.26;100909.25;5058145;28;2190;-56
2022/11/06 07:41:25;;;;;;;;;;;;;;;17.24;50.28;100903.19;5058159;28;1148;-57
2022/11/06 07:43:50;;;;;;;;;;;;;;;17.07;49.38;100909.78;5058489;28;1977;-57
2022/11/06 07:46:16;;;;;;;;;;;;;;;17.44;51.57;100896.84;5058088;28;1187;-57
2022/11/06 07:48:41;;;;;;;;;;;;;;;17.10;50.56;100906.47;5057575;28;978;-58
2022/11/06 07:51:07;;;;;;;;;;;;;;;17.01;49.67;100910.88;5058023;28;1112;-57
2022/11/06 07:53:32;;;;;;;;;;;;;;;17.54;50.90;100915.25;5058134;28;1132;-57
2022/11/06 07:55:58;;;;;;;;;;;;;;;17.57;51.69;100910.06;5058110;28;1080;-56
2022/11/06 07:58:23;;;;;;;;;;;;;;;17.20;50.62;100915.84;5057461;28;1387;-58
2022/11/06 08:00:53;;;;;;;;;;;;;;;17.05;49.85;100927.63;5057114;28;1037;-57
2022/11/06 08:03:18;;;;;;;;;;;;;;;17.89;50.93;100919.91;5056876;28;1913;-58
2022/11/06 08:05:44;;;;;;;;;;;;;;;17.26;50.74;100920.22;5057622;28;1139;-57
2022/11/06 08:08:09;;;;;;;;;;;;;;;17.23;49.55;100921.59;5057778;28;1892;-55
2022/11/06 08:10:39;;;;;;;;;;;;;;;17.02;48.75;100914.44;5057529;28;1084;-57
2022/11/06 08:13:07;;;;;;;;;;;;;;;17.30;48.76;100915.81;5057147;28;889;-57
2022/11/06 08:15:33;;;;;;;;;;;;;;;17.39;51.03;100921.59;5056846;28;1688;-56
2022/11/06 08:17:58;;;;;;;;;;;;;;;17.24;50.61;100911.44;5057167;28;1108;-57
2022/11/06 08:20:24;;;;;;;;;;;;;;;17.52;50.98;100901.81;5057428;28;1179;-59
2022/11/06 08:22:49;;;;;;;;;;;;;;;17.64;51.85;100912.50;5057693;28;1109;-56
2022/11/06 08:25:15;;;;;;;;;;;;;;;17.95;52.16;100915.25;5057303;28;1905;-60
2022/11/06 08:27:40;;;;;;;;;;;;;;;18.97;53.05;100924.13;5057168;28;1092;-60
2022/11/06 08:30:06;;;;;;;;;;;;;;;18.06;52.88;100913.25;5056816;28;1104;-60
2022/11/06 08:32:31;;;;;;;;;;;;;;;17.71;51.59;100925.97;5057011;28;1143;-58
2022/11/06 08:34:57;;;;;;;;;;;;;;;17.51;50.23;100927.63;5056971;28;1362;-57
2022/11/06 08:37:22;;;;;;;;;;;;;;;17.50;48.82;100927.91;5056739;28;1870;-59
2022/11/06 08:39:47;;;;;;;;;;;;;;;17.92;50.86;100926.78;5056573;28;1160;-58
2022/11/06 08:42:13;;;;;;;;;;;;;;;17.70;50.57;100919.66;5056985;28;1131;-59
2022/11/06 08:44:38;;;;;;;;;;;;;;;17.42;49.71;100916.38;5056735;28;1914;-58
2022/11/06 08:47:04;;;;;;;;;;;;;;;17.75;49.90;100927.91;5056656;28;1163;-59
2022/11/06 08:49:29;;;;;;;;;;;;;;;17.88;51.29;100928.41;5056743;28;1143;-59
2022/11/06 08:51:55;;;;;;;;;;;;;;;17.54;50.10;100943.56;5055925;28;1096;-58
2022/11/06 08:54:20;;;;;;;;;;;;;;;18.60;51.63;100925.41;5055804;28;1278;-57
2022/11/06 08:56:46;;;;;;;;;;;;;;;17.87;51.31;100924.84;5056607;28;1116;-59
2022/11/06 08:59:11;;;;;;;;;;;;;;;17.60;50.10;100931.50;5056185;28;1044;-60
2022/11/06 09:01:36;;;;;;;;;;;;;;;17.42;49.10;100927.38;5056266;28;1204;-61
2022/11/06 09:04:02;;;;;;;;;;;;;;;17.55;49.33;100934.22;5055787;28;1902;-65
2022/11/06 09:06:27;;;;;;;;;;;;;;;18.01;50.75;100941.63;5056123;28;1088;-61
2022/11/06 09:08:53;;;;;;;;;;;;;;;17.66;49.86;100934.25;5056428;28;1777;-63
2022/11/06 09:11:18;;;;;;;;;;;;;;;17.51;48.81;100943.31;5055894;28;1107;-62
2022/11/06 09:13:44;;;;;;;;;;;;;;;17.78;49.92;100935.59;5055066;28;1120;-62
2022/11/06 09:16:09;;;;;;;;;;;;;;;17.76;50.82;100948.78;5055569;28;1061;-58
2022/11/06 09:18:34;;;;;;;;;;;;;;;17.47;49.96;100953.22;5056094;28;1207;-61
2022/11/06 09:21:00;;;;;;;;;;;;;;;17.32;49.04;100938.38;5056244;28;1136;-60
2022/11/06 09:23:25;;;;;;;;;;;;;;;18.04;50.21;100924.53;5056130;28;1968;-60
2022/11/06 09:25:51;;;;;;;;;;;;;;;17.73;51.04;100938.34;5056308;28;1144;-59
2022/11/06 09:28:16;;;;;;;;;;;;;;;17.62;50.57;100934.78;5056503;28;1188;-59
2022/11/06 09:30:42;;;;;;;;;;;;;;;17.56;50.37;100943.31;5055973;28;1168;-62
2022/11/06 09:33:07;;;;;;;;;;;;;;;17.34;49.62;100941.66;5055939;28;1206;-58
2022/11/06 09:35:33;;;;;;;;;;;;;;;17.25;48.86;100946.03;5055751;28;1144;-61
2022/11/06 09:38:02;;;;;;;;;;;;;;;17.16;48.59;100937.53;5055697;28;1853;-60
2022/11/06 09:40:53;;;;;;;;;;;;;;;17.14;48.18;100938.91;5056052;28;1222;-60
2022/11/06 09:43:37;;;;;;;;;;;;;;;17.03;47.90;100927.91;5051027;28;1975;-61
2022/11/06 09:46:22;;;;;;;;;;;;;;;17.09;47.22;100939.72;5055954;28;1128;-61
2022/11/06 09:48:49;;;;;;;;;;;;;;;17.62;49.18;100937.53;5056060;28;1191;-62
2022/11/06 09:51:26;;;;;;;;;;;;;;;17.32;49.62;100945.78;5038482;28;1275;-62
2022/11/06 09:54:03;;;;;;;;;;;;;;;17.13;48.96;100937.28;5038376;28;1192;-62
2022/11/06 09:56:29;;;;;;;;;;;;;;;17.04;48.38;100940.56;5055807;28;1076;-62
2022/11/06 09:58:55;;;;;;;;;;;;;;;17.73;49.24;100935.59;5038388;28;1156;-61
2022/11/06 10:01:21;;;;;;;;;;;;;;;17.20;49.49;100943.31;5037692;28;1264;-59
2022/11/06 10:03:59;;;;;;;;;;;;;;;17.20;49.03;100940.56;5037803;28;1906;-58
2022/11/06 10:06:24;;;;;;;;;;;;;;;17.04;48.73;100932.31;5055599;28;1128;-63
2022/11/06 10:08:50;;;;;;;;;;;;;;;17.27;49.07;100943.88;5055658;28;1812;-62
2022/11/06 10:11:16;;;;;;;;;;;;;;;17.60;50.41;100938.94;5037904;28;1148;-59
2022/11/06 10:13:41;;;;;;;;;;;;;;;17.33;50.27;100937.25;5055698;28;937;-64
2022/11/06 10:16:07;;;;;;;;;;;;;;;17.27;49.54;100941.13;5055939;28;1139;-62
2022/11/06 10:18:41;;;;;;;;;;;;;;;17.21;48.82;100942.22;5055908;28;1164;-60
2022/11/06 10:21:06;;;;;;;;;;;;;;;17.09;48.47;100932.28;5055640;28;1072;-62
2022/11/06 10:23:38;;;;;;;;;;;;;;;16.99;47.85;100931.47;5055720;28;1906;-60
2022/11/06 10:26:08;;;;;;;;;;;;;;;17.67;49.20;100925.72;5058254;28;942;-62
2022/11/06 10:28:40;;;;;;;;;;;;;;;17.24;49.44;100925.19;5041653;28;1234;-60
2022/11/06 10:31:18;;;;;;;;;;;;;;;17.08;48.75;100919.69;5041891;28;1144;-62
2022/11/06 10:33:50;;;;;;;;;;;;;;;17.81;50.17;100919.63;5059661;28;1124;-61
2022/11/06 10:36:23;;;;;;;;;;;;;;;17.37;50.46;100919.13;5059083;28;1171;-59
2022/11/06 10:38:48;;;;;;;;;;;;;;;17.21;49.31;100923.00;5058204;28;2268;-61
2022/11/06 10:41:20;;;;;;;;;;;;;;;17.02;49.01;100925.44;5059037;28;1155;-60
2022/11/06 10:44:05;;;;;;;;;;;;;;;17.15;48.84;100924.06;5058751;28;1978;-62
2022/11/06 10:46:35;;;;;;;;;;;;;;;17.06;48.20;100921.03;5041395;28;1105;-61
2022/11/06 10:49:01;;;;;;;;;;;;;;;17.85;50.20;100909.72;5059301;28;1128;-59
2022/11/06 10:51:44;;;;;;;;;;;;;;;17.31;50.25;100912.00;5057797;28;1123;-61
2022/11/06 10:54:12;;;;;;;;;;;;;;;17.24;49.33;100914.19;5041415;28;1105;-60
2022/11/06 10:56:41;;;;;;;;;;;;;;;17.16;49.42;100915.56;5059512;28;1065;-60
2022/11/06 10:59:06;;;;;;;;;;;;;;;17.29;49.04;100914.16;5058954;28;1128;-59
2022/11/06 11:01:32;;;;;;;;;;;;;;;17.32;48.45;100915.56;5040568;28;1008;-58
2022/11/06 11:03:57;;;;;;;;;;;;;;;17.12;48.26;100919.94;5041213;28;1973;-61
2022/11/06 11:06:22;;;;;;;;;;;;;;;17.85;49.55;100915.22;5058902;28;1105;-59
2022/11/06 11:08:48;;;;;;;;;;;;;;;17.41;50.43;100917.47;5040783;28;1854;-58
2022/11/06 11:11:14;;;;;;;;;;;;;;;17.27;49.33;100922.69;5059020;28;1140;-59
2022/11/06 11:13:43;;;;;;;;;;;;;;;17.10;48.56;100924.91;5058382;28;1069;-58
2022/11/06 11:16:17;;;;;;;;;;;;;;;17.10;48.42;100928.47;5057833;28;1187;-61
2022/11/06 11:18:43;;;;;;;;;;;;;;;17.00;48.24;100922.97;5058580;28;1274;-59
2022/11/06 11:21:11;;;;;;;;;;;;;;;16.97;47.55;100918.03;5057722;28;1219;-58
2022/11/06 11:23:36;;;;;;;;;;;;;;;17.62;49.38;100920.22;5058243;28;1902;-59
2022/11/06 11:26:22;;;;;;;;;;;;;;;17.20;49.03;100924.09;5057714;28;1077;-59
2022/11/06 11:28:53;;;;;;;;;;;;;;;17.05;48.47;100922.13;5040726;28;1180;-59
2022/11/06 11:31:18;;;;;;;;;;;;;;;16.97;47.99;100907.03;5039732;28;1275;-59
2022/11/06 11:33:48;;;;;;;;;;;;;;;17.20;47.82;100918.59;5040199;28;1326;-59
2022/11/06 11:36:14;;;;;;;;;;;;;;;17.37;49.07;100912.81;5039056;28;1203;-59
2022/11/06 11:38:39;;;;;;;;;;;;;;;17.10;48.89;100917.47;5023115;28;1946;-59
2022/11/06 11:41:21;;;;;;;;;;;;;;;17.48;49.10;100916.38;5040527;28;1124;-60
2022/11/06 11:44:05;;;;;;;;;;;;;;;17.38;50.08;100917.22;5058184;28;1906;-61
2022/11/06 11:46:31;;;;;;;;;;;;;;;18.31;50.71;100915.09;5058598;28;1148;-64
2022/11/06 11:48:57;;;;;;;;;;;;;;;18.28;51.96;100921.97;5057592;28;1128;-62
2022/11/06 11:51:35;;;;;;;;;;;;;;;17.72;51.24;100927.63;5057956;28;1100;-61
2022/11/06 11:54:00;;;;;;;;;;;;;;;17.45;50.18;100924.06;5057952;28;1076;-61
2022/11/06 11:56:27;;;;;;;;;;;;;;;17.37;49.24;100915.56;5057637;28;1128;-61
2022/11/06 11:58:54;;;;;;;;;;;;;;;17.34;48.32;100911.44;5058058;28;1151;-61
2022/11/06 12:01:28;;;;;;;;;;;;;;;17.24;47.68;100925.19;5039866;28;1253;-60
2022/11/06 12:03:54;;;;;;;;;;;;;;;17.09;47.41;100924.06;5056562;28;1973;-59
2022/11/06 12:06:19;;;;;;;;;;;;;;;17.06;47.22;100926.53;5057744;28;1104;-61
2022/11/06 12:08:49;;;;;;;;;;;;;;;16.99;46.77;100915.81;5039729;28;1825;-60
2022/11/06 12:11:15;;;;;;;;;;;;;;;17.02;46.53;100930.94;5039959;28;1140;-61
2022/11/06 12:13:41;;;;;;;;;;;;;;;17.20;46.92;100926.81;5039166;28;1232;-61
2022/11/06 12:16:08;;;;;;;;;;;;;;;17.38;49.32;100929.03;5057884;28;1155;-62
2022/11/06 12:18:34;;;;;;;;;;;;;;;17.17;48.70;100935.63;5040143;28;1211;-62
2022/11/06 12:21:01;;;;;;;;;;;;;;;17.09;47.88;100929.56;5057537;28;1128;-62
2022/11/06 12:23:28;;;;;;;;;;;;;;;17.06;47.01;100921.88;5039870;28;1945;-62
2022/11/06 12:26:08;;;;;;;;;;;;;;;16.90;47.03;100922.94;5057087;28;1183;-61
2022/11/06 12:28:34;;;;;;;;;;;;;;;16.82;46.99;100926.22;5057201;28;1167;-62
2022/11/06 12:31:01;;;;;;;;;;;;;;;16.75;46.67;100932.78;5057368;28;1081;-61
2022/11/06 12:33:27;;;;;;;;;;;;;;;16.76;46.43;100923.44;5057089;28;1120;-60
2022/11/06 12:35:59;;;;;;;;;;;;;;;16.75;46.10;100932.78;5057240;28;1163;-61
2022/11/06 12:38:37;;;;;;;;;;;;;;;16.60;46.42;100938.22;5039374;28;1865;-62
2022/11/06 12:41:25;;;;;;;;;;;;;;;17.26;47.45;100942.22;5056785;28;1108;-61
2022/11/06 12:43:50;;;;;;;;;;;;;;;16.82;48.25;100937.19;5039262;28;1889;-61
2022/11/06 12:46:24;;;;;;;;;;;;;;;16.81;47.76;100935.53;5057107;28;1159;-62
2022/11/06 12:49:08;;;;;;;;;;;;;;;16.75;47.05;100931.94;5056820;28;1155;-61
2022/11/06 12:51:34;;;;;;;;;;;;;;;17.28;48.44;100929.03;5056631;28;1401;-62
2022/11/06 12:54:02;;;;;;;;;;;;;;;16.92;48.44;100926.25;5056785;28;1152;-61
2022/11/06 12:56:48;;;;;;;;;;;;;;;16.85;47.90;100933.91;5056596;28;1155;-61
2022/11/06 12:59:19;;;;;;;;;;;;;;;16.78;46.99;100931.41;5055325;28;1407;-61
2022/11/06 13:01:54;;;;;;;;;;;;;;;17.55;48.09;100922.41;5038095;28;1235;-61